TimeEST,TemperatureF,Dew PointF,Humidity,Sea Level PressureIn,VisibilityMPH,Wind Direction,Wind SpeedMPH,Gust SpeedMPH,PrecipitationIn,Events,Conditions,WindDirDegrees,DateUTC
12:52 AM,37.0,27.0,67,30.46,10.0,South,5.8,-,N/A,,Clear,190,2013-12-01 05:52:00
1:52 AM,37.9,27.0,65,30.43,10.0,South,8.1,-,N/A,,Clear,170,2013-12-01 06:52:00
2:52 AM,39.0,28.0,65,30.41,10.0,South,8.1,-,N/A,,Clear,170,2013-12-01 07:52:00
3:52 AM,39.9,28.9,65,30.38,10.0,SSE,5.8,-,N/A,,Clear,160,2013-12-01 08:52:00
4:52 AM,41.0,30.0,65,30.36,10.0,SSE,6.9,-,N/A,,Overcast,160,2013-12-01 09:52:00
5:52 AM,41.0,32.0,70,30.35,10.0,South,8.1,-,N/A,,Mostly Cloudy,170,2013-12-01 10:52:00
6:52 AM,41.0,32.0,70,30.32,10.0,SSE,8.1,-,N/A,,Scattered Clouds,150,2013-12-01 11:52:00
7:52 AM,42.1,33.1,70,30.31,10.0,SSE,11.5,19.6,N/A,,Clear,160,2013-12-01 12:52:00
8:52 AM,45.0,34.0,65,30.31,10.0,SSE,6.9,-,N/A,,Clear,160,2013-12-01 13:52:00
9:52 AM,46.0,35.1,66,30.29,10.0,South,10.4,18.4,N/A,,Scattered Clouds,170,2013-12-01 14:52:00
10:52 AM,46.0,37.9,73,30.25,10.0,SSE,9.2,-,N/A,,Clear,160,2013-12-01 15:52:00
11:52 AM,46.9,39.9,77,30.22,10.0,SSE,11.5,-,N/A,,Mostly Cloudy,150,2013-12-01 16:52:00
12:52 PM,46.9,41.0,80,30.18,10.0,SE,9.2,-,0.00,,Overcast,130,2013-12-01 17:52:00
1:52 PM,48.0,42.1,80,30.15,10.0,ESE,9.2,-,N/A,,Overcast,120,2013-12-01 18:52:00
2:52 PM,48.0,43.0,83,30.13,10.0,ESE,8.1,-,N/A,,Overcast,120,2013-12-01 19:52:00
3:06 PM,48.9,43.0,80,30.12,10.0,SE,10.4,-,N/A,,Overcast,130,2013-12-01 20:06:00
3:34 PM,48.9,42.1,77,30.11,10.0,Variable,6.9,-,N/A,,Overcast,0,2013-12-01 20:34:00
3:52 PM,48.9,42.1,77,30.11,10.0,SE,8.1,17.3,N/A,,Overcast,140,2013-12-01 20:52:00
4:52 PM,48.0,45.0,89,30.10,10.0,Variable,5.8,-,0.01,,Overcast,0,2013-12-01 21:52:00
5:52 PM,48.0,45.0,89,30.09,5.0,SE,6.9,-,0.01,Rain,Light Rain,140,2013-12-01 22:52:00
6:52 PM,48.0,46.0,93,30.06,9.0,SE,9.2,20.7,0.03,Rain,Light Rain,130,2013-12-01 23:52:00
7:06 PM,48.0,46.0,93,30.06,10.0,SE,10.4,-,0.00,,Overcast,130,2013-12-02 00:06:00
7:20 PM,48.0,46.0,93,30.05,10.0,ESE,9.2,-,0.00,,Overcast,120,2013-12-02 00:20:00
7:27 PM,48.0,46.0,93,30.05,10.0,ESE,8.1,-,0.00,,Overcast,120,2013-12-02 00:27:00
7:52 PM,48.0,46.9,96,30.05,10.0,ESE,9.2,-,0.00,,Overcast,120,2013-12-02 00:52:00
8:06 PM,48.0,46.9,96,30.04,4.0,SE,6.9,-,0.03,Rain,Light Rain,140,2013-12-02 01:06:00
8:17 PM,48.9,46.9,93,30.04,2.5,ESE,5.8,-,0.12,Rain,Heavy Rain,120,2013-12-02 01:17:00
8:22 PM,48.9,46.9,93,30.04,3.0,ESE,6.9,-,0.13,Rain,Rain,110,2013-12-02 01:22:00
8:41 PM,48.0,46.9,96,30.02,5.0,SE,6.9,-,0.18,Rain,Light Rain,130,2013-12-02 01:41:00
8:52 PM,48.0,46.9,96,30.03,5.0,SE,9.2,-,0.18,Rain,Rain,140,2013-12-02 01:52:00
9:08 PM,48.9,46.9,93,30.02,10.0,SSE,9.2,-,0.00,Rain,Light Rain,150,2013-12-02 02:08:00
9:52 PM,48.9,46.9,93,30.01,10.0,SSE,5.8,-,0.02,,Overcast,160,2013-12-02 02:52:00
10:52 PM,48.0,46.9,96,30.00,8.0,South,5.8,-,N/A,,Overcast,170,2013-12-02 03:52:00
11:06 PM,48.0,46.9,96,29.99,8.0,South,3.5,-,N/A,,Overcast,170,2013-12-02 04:06:00
11:17 PM,48.0,46.9,96,29.98,8.0,South,5.8,-,N/A,,Overcast,170,2013-12-02 04:17:00
11:50 PM,48.2,46.4,93,29.97,6.0,WSW,3.5,-,N/A,,Overcast,240,2013-12-02 04:50:00
11:52 PM,48.0,46.0,93,29.98,6.0,SW,3.5,-,N/A,,Overcast,230,2013-12-02 04:52:00